sensor_id;sensor_type;location;lat;lon;timestamp;temperature;humidity
5150;DHT22;2593;52.466;13.436;2022-09-27T00:01:04;12.70;99.90
5150;DHT22;2593;52.466;13.436;2022-09-27T00:03:30;12.70;99.90
5150;DHT22;2593;52.466;13.436;2022-09-27T00:06:19;12.70;99.90
5150;DHT22;2593;52.466;13.436;2022-09-27T00:08:46;12.70;99.90
5150;DHT22;2593;52.466;13.436;2022-09-27T00:11:22;12.70;99.90
5150;DHT22;2593;52.466;13.436;2022-09-27T00:13:49;12.60;99.90
5150;DHT22;2593;52.466;13.436;2022-09-27T00:16:14;12.60;99.90
5150;DHT22;2593;52.466;13.436;2022-09-27T00:18:40;12.60;99.90
5150;DHT22;2593;52.466;13.436;2022-09-27T00:21:08;12.60;99.90
5150;DHT22;2593;52.466;13.436;2022-09-27T00:23:34;12.60;99.90
5150;DHT22;2593;52.466;13.436;2022-09-27T00:25:59;12.60;99.90
5150;DHT22;2593;52.466;13.436;2022-09-27T00:28:26;12.60;99.90
5150;DHT22;2593;52.466;13.436;2022-09-27T00:30:52;12.60;99.90
5150;DHT22;2593;52.466;13.436;2022-09-27T00:33:19;12.60;99.90
5150;DHT22;2593;52.466;13.436;2022-09-27T00:35:45;12.70;99.90
5150;DHT22;2593;52.466;13.436;2022-09-27T00:38:11;12.60;99.90
5150;DHT22;2593;52.466;13.436;2022-09-27T00:40:37;12.60;99.90
5150;DHT22;2593;52.466;13.436;2022-09-27T00:43:17;12.60;99.90
5150;DHT22;2593;52.466;13.436;2022-09-27T00:45:55;12.60;99.90
5150;DHT22;2593;52.466;13.436;2022-09-27T00:48:25;12.60;99.90
5150;DHT22;2593;52.466;13.436;2022-09-27T00:50:54;12.60;99.90
5150;DHT22;2593;52.466;13.436;2022-09-27T00:53:28;12.60;99.90
5150;DHT22;2593;52.466;13.436;2022-09-27T00:55:57;12.60;99.90
5150;DHT22;2593;52.466;13.436;2022-09-27T00:58:31;12.60;99.90
5150;DHT22;2593;52.466;13.436;2022-09-27T01:01:02;12.60;99.90
5150;DHT22;2593;52.466;13.436;2022-09-27T01:03:58;12.50;99.90
5150;DHT22;2593;52.466;13.436;2022-09-27T01:06:25;12.50;99.90
5150;DHT22;2593;52.466;13.436;2022-09-27T01:08:50;12.50;99.90
5150;DHT22;2593;52.466;13.436;2022-09-27T01:11:45;12.50;99.90
5150;DHT22;2593;52.466;13.436;2022-09-27T01:31:22;12.50;99.90
5150;DHT22;2593;52.466;13.436;2022-09-27T01:34:06;12.50;99.90
5150;DHT22;2593;52.466;13.436;2022-09-27T01:36:42;12.50;99.90
5150;DHT22;2593;52.466;13.436;2022-09-27T01:39:31;12.50;99.90
5150;DHT22;2593;52.466;13.436;2022-09-27T01:47:21;12.50;99.90
5150;DHT22;2593;52.466;13.436;2022-09-27T01:50:00;12.50;99.90
5150;DHT22;2593;52.466;13.436;2022-09-27T01:52:36;12.50;99.90
5150;DHT22;2593;52.466;13.436;2022-09-27T01:55:06;12.50;99.90
5150;DHT22;2593;52.466;13.436;2022-09-27T01:57:38;12.50;99.90
5150;DHT22;2593;52.466;13.436;2022-09-27T02:00:07;12.60;99.90
5150;DHT22;2593;52.466;13.436;2022-09-27T02:02:49;12.60;99.90
5150;DHT22;2593;52.466;13.436;2022-09-27T02:05:18;12.50;99.90
5150;DHT22;2593;52.466;13.436;2022-09-27T02:07:51;12.60;99.90
5150;DHT22;2593;52.466;13.436;2022-09-27T02:10:23;12.60;99.90
5150;DHT22;2593;52.466;13.436;2022-09-27T02:18:17;12.60;99.90
5150;DHT22;2593;52.466;13.436;2022-09-27T02:20:51;12.70;99.90
5150;DHT22;2593;52.466;13.436;2022-09-27T02:23:42;12.70;99.90
5150;DHT22;2593;52.466;13.436;2022-09-27T02:26:30;12.70;99.90
5150;DHT22;2593;52.466;13.436;2022-09-27T02:29:16;12.70;99.90
5150;DHT22;2593;52.466;13.436;2022-09-27T02:31:43;12.70;99.90
5150;DHT22;2593;52.466;13.436;2022-09-27T02:36:42;12.80;99.90
5150;DHT22;2593;52.466;13.436;2022-09-27T02:39:08;12.70;99.90
5150;DHT22;2593;52.466;13.436;2022-09-27T02:41:33;12.70;99.90
5150;DHT22;2593;52.466;13.436;2022-09-27T02:44:02;12.70;99.90
5150;DHT22;2593;52.466;13.436;2022-09-27T02:52:33;12.80;99.90
5150;DHT22;2593;52.466;13.436;2022-09-27T02:54:43;12.80;99.90
5150;DHT22;2593;52.466;13.436;2022-09-27T03:02:20;12.70;99.90
5150;DHT22;2593;52.466;13.436;2022-09-27T03:04:54;12.70;99.90
5150;DHT22;2593;52.466;13.436;2022-09-27T03:07:21;12.80;99.90
5150;DHT22;2593;52.466;13.436;2022-09-27T03:09:49;12.80;99.90
5150;DHT22;2593;52.466;13.436;2022-09-27T03:12:17;12.80;99.90
5150;DHT22;2593;52.466;13.436;2022-09-27T03:14:47;12.80;99.90
5150;DHT22;2593;52.466;13.436;2022-09-27T03:17:13;12.80;99.90
5150;DHT22;2593;52.466;13.436;2022-09-27T03:19:39;12.80;99.90
5150;DHT22;2593;52.466;13.436;2022-09-27T03:22:05;12.80;99.90
5150;DHT22;2593;52.466;13.436;2022-09-27T03:24:31;12.80;99.90
5150;DHT22;2593;52.466;13.436;2022-09-27T03:26:56;12.90;99.90
5150;DHT22;2593;52.466;13.436;2022-09-27T03:29:22;12.80;99.90
5150;DHT22;2593;52.466;13.436;2022-09-27T03:31:48;12.70;99.90
5150;DHT22;2593;52.466;13.436;2022-09-27T03:34:13;12.70;99.90
5150;DHT22;2593;52.466;13.436;2022-09-27T03:36:39;12.80;99.90
5150;DHT22;2593;52.466;13.436;2022-09-27T03:39:05;12.80;99.90
5150;DHT22;2593;52.466;13.436;2022-09-27T03:41:31;12.80;99.90
5150;DHT22;2593;52.466;13.436;2022-09-27T03:43:56;12.80;99.90
5150;DHT22;2593;52.466;13.436;2022-09-27T03:46:24;12.70;99.90
5150;DHT22;2593;52.466;13.436;2022-09-27T03:48:50;12.70;99.90
5150;DHT22;2593;52.466;13.436;2022-09-27T03:51:16;12.70;99.90
5150;DHT22;2593;52.466;13.436;2022-09-27T03:53:41;12.70;99.90
5150;DHT22;2593;52.466;13.436;2022-09-27T03:56:08;12.70;99.90
5150;DHT22;2593;52.466;13.436;2022-09-27T03:58:33;12.70;99.90
5150;DHT22;2593;52.466;13.436;2022-09-27T04:00:59;12.60;99.90
5150;DHT22;2593;52.466;13.436;2022-09-27T04:03:25;12.60;99.90
5150;DHT22;2593;52.466;13.436;2022-09-27T04:05:52;12.60;99.90
5150;DHT22;2593;52.466;13.436;2022-09-27T04:08:19;12.60;99.90
5150;DHT22;2593;52.466;13.436;2022-09-27T04:10:46;12.60;99.90
5150;DHT22;2593;52.466;13.436;2022-09-27T04:13:12;12.60;1.00
5150;DHT22;2593;52.466;13.436;2022-09-27T04:15:38;12.50;1.00
5150;DHT22;2593;52.466;13.436;2022-09-27T04:18:06;12.50;1.00
5150;DHT22;2593;52.466;13.436;2022-09-27T04:20:32;12.50;1.00
5150;DHT22;2593;52.466;13.436;2022-09-27T04:22:58;12.50;1.00
5150;DHT22;2593;52.466;13.436;2022-09-27T04:25:23;12.60;1.00
5150;DHT22;2593;52.466;13.436;2022-09-27T04:27:49;12.60;1.00
5150;DHT22;2593;52.466;13.436;2022-09-27T04:30:20;12.60;1.00
5150;DHT22;2593;52.466;13.436;2022-09-27T04:32:46;12.50;1.00
5150;DHT22;2593;52.466;13.436;2022-09-27T04:35:13;12.50;59.70
5150;DHT22;2593;52.466;13.436;2022-09-27T04:37:58;12.50;99.90
5150;DHT22;2593;52.466;13.436;2022-09-27T04:40:23;12.40;99.90
5150;DHT22;2593;52.466;13.436;2022-09-27T04:42:50;12.40;99.90
5150;DHT22;2593;52.466;13.436;2022-09-27T04:45:16;12.40;99.90
5150;DHT22;2593;52.466;13.436;2022-09-27T04:47:44;12.40;1.00
5150;DHT22;2593;52.466;13.436;2022-09-27T04:50:10;12.30;1.00
5150;DHT22;2593;52.466;13.436;2022-09-27T04:52:36;12.20;15.40
5150;DHT22;2593;52.466;13.436;2022-09-27T04:55:03;12.20;99.90
5150;DHT22;2593;52.466;13.436;2022-09-27T04:57:29;12.20;99.90
5150;DHT22;2593;52.466;13.436;2022-09-27T04:59:55;12.20;99.90
5150;DHT22;2593;52.466;13.436;2022-09-27T05:02:20;12.20;1.00
5150;DHT22;2593;52.466;13.436;2022-09-27T05:04:46;12.20;1.00
5150;DHT22;2593;52.466;13.436;2022-09-27T05:07:11;12.10;4.30
5150;DHT22;2593;52.466;13.436;2022-09-27T05:09:37;12.10;5.80
5150;DHT22;2593;52.466;13.436;2022-09-27T05:12:03;12.10;99.90
5150;DHT22;2593;52.466;13.436;2022-09-27T05:14:29;12.10;1.00
5150;DHT22;2593;52.466;13.436;2022-09-27T05:16:55;12.10;99.90
5150;DHT22;2593;52.466;13.436;2022-09-27T05:19:20;12.10;99.90
5150;DHT22;2593;52.466;13.436;2022-09-27T05:21:46;12.10;94.40
5150;DHT22;2593;52.466;13.436;2022-09-27T05:24:11;12.20;38.00
5150;DHT22;2593;52.466;13.436;2022-09-27T05:26:37;12.10;99.90
5150;DHT22;2593;52.466;13.436;2022-09-27T05:29:03;12.10;80.10
5150;DHT22;2593;52.466;13.436;2022-09-27T05:31:29;12.10;1.00
5150;DHT22;2593;52.466;13.436;2022-09-27T05:33:54;12.10;99.90
5150;DHT22;2593;52.466;13.436;2022-09-27T05:36:20;12.10;99.90
5150;DHT22;2593;52.466;13.436;2022-09-27T05:38:47;12.00;1.00
5150;DHT22;2593;52.466;13.436;2022-09-27T05:41:13;12.00;49.70
5150;DHT22;2593;52.466;13.436;2022-09-27T05:43:39;11.80;99.90
5150;DHT22;2593;52.466;13.436;2022-09-27T05:46:05;11.80;99.90
5150;DHT22;2593;52.466;13.436;2022-09-27T05:48:31;11.80;1.00
5150;DHT22;2593;52.466;13.436;2022-09-27T05:50:57;11.80;1.00
5150;DHT22;2593;52.466;13.436;2022-09-27T05:53:22;11.80;1.00
5150;DHT22;2593;52.466;13.436;2022-09-27T05:55:48;11.80;1.00
5150;DHT22;2593;52.466;13.436;2022-09-27T05:58:14;11.80;1.00
5150;DHT22;2593;52.466;13.436;2022-09-27T06:00:41;11.90;1.00
5150;DHT22;2593;52.466;13.436;2022-09-27T06:03:07;12.00;1.00
5150;DHT22;2593;52.466;13.436;2022-09-27T06:05:36;12.00;1.00
5150;DHT22;2593;52.466;13.436;2022-09-27T06:08:10;12.00;1.00
5150;DHT22;2593;52.466;13.436;2022-09-27T06:10:36;11.90;1.00
5150;DHT22;2593;52.466;13.436;2022-09-27T06:13:13;11.90;1.00
5150;DHT22;2593;52.466;13.436;2022-09-27T06:15:41;11.90;1.00
5150;DHT22;2593;52.466;13.436;2022-09-27T06:18:10;11.90;1.00
5150;DHT22;2593;52.466;13.436;2022-09-27T06:20:37;11.90;1.00
5150;DHT22;2593;52.466;13.436;2022-09-27T06:23:22;11.90;1.00
5150;DHT22;2593;52.466;13.436;2022-09-27T06:25:49;11.90;1.00
5150;DHT22;2593;52.466;13.436;2022-09-27T06:28:15;11.90;6.80
5150;DHT22;2593;52.466;13.436;2022-09-27T06:30:44;11.90;53.10
5150;DHT22;2593;52.466;13.436;2022-09-27T06:33:12;11.90;28.60
5150;DHT22;2593;52.466;13.436;2022-09-27T06:35:38;11.90;63.50
5150;DHT22;2593;52.466;13.436;2022-09-27T06:38:05;11.80;56.10
5150;DHT22;2593;52.466;13.436;2022-09-27T06:40:34;11.90;59.70
5150;DHT22;2593;52.466;13.436;2022-09-27T06:43:07;11.90;56.30
5150;DHT22;2593;52.466;13.436;2022-09-27T06:45:35;11.90;72.90
5150;DHT22;2593;52.466;13.436;2022-09-27T06:48:02;11.80;92.30
5150;DHT22;2593;52.466;13.436;2022-09-27T06:50:29;11.80;99.90
5150;DHT22;2593;52.466;13.436;2022-09-27T06:52:55;11.90;98.00
5150;DHT22;2593;52.466;13.436;2022-09-27T06:55:21;11.90;63.50
5150;DHT22;2593;52.466;13.436;2022-09-27T06:57:46;11.90;66.10
5150;DHT22;2593;52.466;13.436;2022-09-27T07:00:31;11.90;97.80
5150;DHT22;2593;52.466;13.436;2022-09-27T07:02:57;11.90;99.90
5150;DHT22;2593;52.466;13.436;2022-09-27T07:05:27;11.90;99.90
5150;DHT22;2593;52.466;13.436;2022-09-27T07:07:54;11.90;99.90
5150;DHT22;2593;52.466;13.436;2022-09-27T07:10:25;12.00;99.90
5150;DHT22;2593;52.466;13.436;2022-09-27T07:12:52;12.00;99.90
5150;DHT22;2593;52.466;13.436;2022-09-27T07:15:18;12.00;99.90
5150;DHT22;2593;52.466;13.436;2022-09-27T07:17:46;11.90;99.90
5150;DHT22;2593;52.466;13.436;2022-09-27T07:20:12;11.90;99.90
5150;DHT22;2593;52.466;13.436;2022-09-27T07:22:42;12.00;99.90
5150;DHT22;2593;52.466;13.436;2022-09-27T07:25:09;12.00;99.90
5150;DHT22;2593;52.466;13.436;2022-09-27T07:27:35;12.10;99.90
5150;DHT22;2593;52.466;13.436;2022-09-27T07:30:01;12.10;99.90
5150;DHT22;2593;52.466;13.436;2022-09-27T07:32:26;12.10;99.90
5150;DHT22;2593;52.466;13.436;2022-09-27T07:34:52;12.20;99.90
5150;DHT22;2593;52.466;13.436;2022-09-27T07:37:18;12.20;99.90
5150;DHT22;2593;52.466;13.436;2022-09-27T07:39:43;12.20;99.90
5150;DHT22;2593;52.466;13.436;2022-09-27T07:42:09;12.20;99.90
5150;DHT22;2593;52.466;13.436;2022-09-27T07:44:35;12.20;99.90
5150;DHT22;2593;52.466;13.436;2022-09-27T07:47:00;12.20;99.90
5150;DHT22;2593;52.466;13.436;2022-09-27T07:49:26;12.20;99.90
5150;DHT22;2593;52.466;13.436;2022-09-27T07:51:51;12.20;99.90
5150;DHT22;2593;52.466;13.436;2022-09-27T07:54:17;12.30;99.90
5150;DHT22;2593;52.466;13.436;2022-09-27T07:56:45;12.20;99.90
5150;DHT22;2593;52.466;13.436;2022-09-27T07:59:11;12.20;99.90
5150;DHT22;2593;52.466;13.436;2022-09-27T08:01:37;12.30;99.90
5150;DHT22;2593;52.466;13.436;2022-09-27T08:04:04;12.30;99.90
5150;DHT22;2593;52.466;13.436;2022-09-27T08:06:30;12.30;99.90
5150;DHT22;2593;52.466;13.436;2022-09-27T08:08:55;12.30;99.90
5150;DHT22;2593;52.466;13.436;2022-09-27T08:11:23;12.30;99.90
5150;DHT22;2593;52.466;13.436;2022-09-27T08:13:48;12.30;99.90
5150;DHT22;2593;52.466;13.436;2022-09-27T08:16:17;12.30;99.90
5150;DHT22;2593;52.466;13.436;2022-09-27T08:18:42;12.30;93.00
5150;DHT22;2593;52.466;13.436;2022-09-27T08:21:08;12.30;99.90
5150;DHT22;2593;52.466;13.436;2022-09-27T08:23:34;12.30;99.20
5150;DHT22;2593;52.466;13.436;2022-09-27T08:26:01;12.30;99.90
5150;DHT22;2593;52.466;13.436;2022-09-27T08:28:27;12.30;99.90
5150;DHT22;2593;52.466;13.436;2022-09-27T08:30:52;12.30;99.90
5150;DHT22;2593;52.466;13.436;2022-09-27T08:33:18;12.30;99.90
5150;DHT22;2593;52.466;13.436;2022-09-27T08:35:44;12.30;99.90
5150;DHT22;2593;52.466;13.436;2022-09-27T08:38:10;12.30;99.90
5150;DHT22;2593;52.466;13.436;2022-09-27T08:48:49;12.40;99.90
5150;DHT22;2593;52.466;13.436;2022-09-27T08:51:20;12.50;99.20
5150;DHT22;2593;52.466;13.436;2022-09-27T08:53:50;12.60;99.90
5150;DHT22;2593;52.466;13.436;2022-09-27T08:56:17;12.60;98.20
5150;DHT22;2593;52.466;13.436;2022-09-27T08:59:03;12.60;69.80
5150;DHT22;2593;52.466;13.436;2022-09-27T09:01:33;12.60;34.50
5150;DHT22;2593;52.466;13.436;2022-09-27T09:04:01;12.50;36.60
5150;DHT22;2593;52.466;13.436;2022-09-27T09:14:57;12.50;99.90
5150;DHT22;2593;52.466;13.436;2022-09-27T09:17:38;12.60;91.40
5150;DHT22;2593;52.466;13.436;2022-09-27T09:20:47;12.60;3.60
5150;DHT22;2593;52.466;13.436;2022-09-27T09:26:17;12.70;43.10
5150;DHT22;2593;52.466;13.436;2022-09-27T09:29:09;12.80;10.80
5150;DHT22;2593;52.466;13.436;2022-09-27T09:31:44;13.00;21.70
5150;DHT22;2593;52.466;13.436;2022-09-27T09:37:10;13.20;1.00
5150;DHT22;2593;52.466;13.436;2022-09-27T09:42:14;13.40;1.00
5150;DHT22;2593;52.466;13.436;2022-09-27T09:45:04;13.50;99.90
5150;DHT22;2593;52.466;13.436;2022-09-27T09:47:52;13.50;99.90
5150;DHT22;2593;52.466;13.436;2022-09-27T09:50:43;13.50;99.90
5150;DHT22;2593;52.466;13.436;2022-09-27T09:53:24;13.50;99.90
5150;DHT22;2593;52.466;13.436;2022-09-27T09:56:01;13.50;99.90
5150;DHT22;2593;52.466;13.436;2022-09-27T09:58:59;13.40;1.00
5150;DHT22;2593;52.466;13.436;2022-09-27T10:01:27;13.50;1.00
5150;DHT22;2593;52.466;13.436;2022-09-27T10:03:54;13.50;1.00
5150;DHT22;2593;52.466;13.436;2022-09-27T10:06:22;13.40;99.90
5150;DHT22;2593;52.466;13.436;2022-09-27T10:08:48;13.40;99.90
5150;DHT22;2593;52.466;13.436;2022-09-27T10:13:47;13.50;1.00
5150;DHT22;2593;52.466;13.436;2022-09-27T10:16:16;13.60;1.00
5150;DHT22;2593;52.466;13.436;2022-09-27T10:18:42;13.80;99.90
5150;DHT22;2593;52.466;13.436;2022-09-27T10:21:21;14.00;99.90
5150;DHT22;2593;52.466;13.436;2022-09-27T10:24:09;14.10;99.90
5150;DHT22;2593;52.466;13.436;2022-09-27T10:26:37;14.20;99.90
5150;DHT22;2593;52.466;13.436;2022-09-27T10:31:39;14.10;99.90
5150;DHT22;2593;52.466;13.436;2022-09-27T10:34:17;14.10;99.90
5150;DHT22;2593;52.466;13.436;2022-09-27T10:36:44;14.00;99.90
5150;DHT22;2593;52.466;13.436;2022-09-27T10:39:21;14.00;99.90
5150;DHT22;2593;52.466;13.436;2022-09-27T10:41:46;14.10;1.00
5150;DHT22;2593;52.466;13.436;2022-09-27T10:46:49;14.20;99.90
5150;DHT22;2593;52.466;13.436;2022-09-27T10:49:25;14.40;99.90
5150;DHT22;2593;52.466;13.436;2022-09-27T10:52:15;14.70;99.90
5150;DHT22;2593;52.466;13.436;2022-09-27T10:54:40;15.10;18.30
5150;DHT22;2593;52.466;13.436;2022-09-27T10:57:19;15.50;99.90
5150;DHT22;2593;52.466;13.436;2022-09-27T11:00:19;15.80;99.90
5150;DHT22;2593;52.466;13.436;2022-09-27T11:02:38;15.90;99.90
5150;DHT22;2593;52.466;13.436;2022-09-27T11:05:31;15.90;99.90
5150;DHT22;2593;52.466;13.436;2022-09-27T11:08:00;15.60;99.90
5150;DHT22;2593;52.466;13.436;2022-09-27T11:10:35;15.40;99.90
5150;DHT22;2593;52.466;13.436;2022-09-27T11:13:18;15.30;99.90
5150;DHT22;2593;52.466;13.436;2022-09-27T11:19:00;15.00;1.00
5150;DHT22;2593;52.466;13.436;2022-09-27T11:21:32;15.10;1.00
5150;DHT22;2593;52.466;13.436;2022-09-27T11:24:16;15.00;99.90
5150;DHT22;2593;52.466;13.436;2022-09-27T11:48:56;14.60;20.10
5150;DHT22;2593;52.466;13.436;2022-09-27T11:57:07;14.10;99.90
5150;DHT22;2593;52.466;13.436;2022-09-27T12:02:47;13.20;1.00
5150;DHT22;2593;52.466;13.436;2022-09-27T12:05:32;12.90;8.40
5150;DHT22;2593;52.466;13.436;2022-09-27T12:10:50;12.40;1.20
5150;DHT22;2593;52.466;13.436;2022-09-27T12:13:32;12.30;99.90
5150;DHT22;2593;52.466;13.436;2022-09-27T12:15:59;12.20;1.00
5150;DHT22;2593;52.466;13.436;2022-09-27T12:18:28;12.10;1.00
5150;DHT22;2593;52.466;13.436;2022-09-27T12:20:59;12.00;1.00
5150;DHT22;2593;52.466;13.436;2022-09-27T12:23:45;12.00;91.40
5150;DHT22;2593;52.466;13.436;2022-09-27T12:26:22;11.90;99.90
5150;DHT22;2593;52.466;13.436;2022-09-27T12:28:56;11.90;99.90
5150;DHT22;2593;52.466;13.436;2022-09-27T12:36:50;12.40;99.90
5150;DHT22;2593;52.466;13.436;2022-09-27T12:39:52;12.60;99.90
5150;DHT22;2593;52.466;13.436;2022-09-27T12:45:16;13.10;99.90
5150;DHT22;2593;52.466;13.436;2022-09-27T12:50:37;13.40;29.70
5150;DHT22;2593;52.466;13.436;2022-09-27T12:53:22;13.50;1.00
5150;DHT22;2593;52.466;13.436;2022-09-27T13:04:58;13.80;7.80
5150;DHT22;2593;52.466;13.436;2022-09-27T13:12:54;14.40;99.90
5150;DHT22;2593;52.466;13.436;2022-09-27T13:15:30;14.50;99.90
5150;DHT22;2593;52.466;13.436;2022-09-27T13:18:01;14.50;99.90
5150;DHT22;2593;52.466;13.436;2022-09-27T13:23:02;14.30;45.60
5150;DHT22;2593;52.466;13.436;2022-09-27T13:31:00;13.90;1.00
5150;DHT22;2593;52.466;13.436;2022-09-27T13:47:30;13.90;1.00
5150;DHT22;2593;52.466;13.436;2022-09-27T13:50:44;13.90;96.50
5150;DHT22;2593;52.466;13.436;2022-09-27T13:53:25;14.00;1.00
5150;DHT22;2593;52.466;13.436;2022-09-27T13:55:52;14.00;1.00
5150;DHT22;2593;52.466;13.436;2022-09-27T14:00:48;14.10;1.00
5150;DHT22;2593;52.466;13.436;2022-09-27T14:04:02;14.20;1.00
5150;DHT22;2593;52.466;13.436;2022-09-27T14:06:32;14.30;99.90
5150;DHT22;2593;52.466;13.436;2022-09-27T14:09:17;14.20;1.00
5150;DHT22;2593;52.466;13.436;2022-09-27T14:11:49;14.00;99.90
5150;DHT22;2593;52.466;13.436;2022-09-27T14:14:21;13.80;99.90
5150;DHT22;2593;52.466;13.436;2022-09-27T14:16:48;13.70;99.90
5150;DHT22;2593;52.466;13.436;2022-09-27T14:19:17;13.70;1.00
5150;DHT22;2593;52.466;13.436;2022-09-27T14:21:45;13.60;1.00
5150;DHT22;2593;52.466;13.436;2022-09-27T14:24:25;13.50;99.90
5150;DHT22;2593;52.466;13.436;2022-09-27T14:27:18;13.50;99.90
5150;DHT22;2593;52.466;13.436;2022-09-27T14:32:32;13.40;1.00
5150;DHT22;2593;52.466;13.436;2022-09-27T14:35:20;13.50;1.00
5150;DHT22;2593;52.466;13.436;2022-09-27T14:38:07;13.50;99.90
5150;DHT22;2593;52.466;13.436;2022-09-27T14:40:59;13.50;99.90
5150;DHT22;2593;52.466;13.436;2022-09-27T14:43:26;13.60;1.00
5150;DHT22;2593;52.466;13.436;2022-09-27T14:45:58;13.60;1.00
5150;DHT22;2593;52.466;13.436;2022-09-27T14:48:33;13.60;99.90
5150;DHT22;2593;52.466;13.436;2022-09-27T14:53:57;13.50;99.90
5150;DHT22;2593;52.466;13.436;2022-09-27T14:56:32;13.40;99.90
5150;DHT22;2593;52.466;13.436;2022-09-27T14:59:13;13.30;1.00
5150;DHT22;2593;52.466;13.436;2022-09-27T15:01:48;13.30;99.90
5150;DHT22;2593;52.466;13.436;2022-09-27T15:04:15;13.10;99.90
5150;DHT22;2593;52.466;13.436;2022-09-27T15:06:41;12.90;99.90
5150;DHT22;2593;52.466;13.436;2022-09-27T15:09:11;12.80;99.90
5150;DHT22;2593;52.466;13.436;2022-09-27T15:11:39;12.90;99.90
5150;DHT22;2593;52.466;13.436;2022-09-27T15:14:10;12.90;1.00
5150;DHT22;2593;52.466;13.436;2022-09-27T15:16:37;13.00;99.90
5150;DHT22;2593;52.466;13.436;2022-09-27T15:19:27;12.90;1.00
5150;DHT22;2593;52.466;13.436;2022-09-27T15:21:54;12.90;1.00
5150;DHT22;2593;52.466;13.436;2022-09-27T15:24:44;12.90;50.70
5150;DHT22;2593;52.466;13.436;2022-09-27T15:27:15;12.80;99.90
5150;DHT22;2593;52.466;13.436;2022-09-27T15:29:55;12.70;21.10
5150;DHT22;2593;52.466;13.436;2022-09-27T15:32:26;12.60;99.90
5150;DHT22;2593;52.466;13.436;2022-09-27T15:34:52;13.20;99.90
5150;DHT22;2593;52.466;13.436;2022-09-27T15:37:36;12.70;99.90
5150;DHT22;2593;52.466;13.436;2022-09-27T15:43:28;12.50;99.90
5150;DHT22;2593;52.466;13.436;2022-09-27T15:45:55;12.40;1.00
5150;DHT22;2593;52.466;13.436;2022-09-27T15:48:22;12.40;83.20
5150;DHT22;2593;52.466;13.436;2022-09-27T15:50:48;12.50;1.00
5150;DHT22;2593;52.466;13.436;2022-09-27T15:56:00;12.60;99.90
5150;DHT22;2593;52.466;13.436;2022-09-27T15:58:26;12.60;99.90
5150;DHT22;2593;52.466;13.436;2022-09-27T16:00:57;12.50;99.90
5150;DHT22;2593;52.466;13.436;2022-09-27T16:03:25;12.50;99.90
5150;DHT22;2593;52.466;13.436;2022-09-27T16:05:52;12.50;1.00
5150;DHT22;2593;52.466;13.436;2022-09-27T16:08:20;12.50;1.00
5150;DHT22;2593;52.466;13.436;2022-09-27T16:10:54;12.50;1.00
5150;DHT22;2593;52.466;13.436;2022-09-27T16:13:24;12.40;1.00
5150;DHT22;2593;52.466;13.436;2022-09-27T16:15:50;12.40;1.00
5150;DHT22;2593;52.466;13.436;2022-09-27T16:18:17;12.40;1.00
5150;DHT22;2593;52.466;13.436;2022-09-27T16:20:42;12.30;1.00
5150;DHT22;2593;52.466;13.436;2022-09-27T16:23:08;12.30;1.00
5150;DHT22;2593;52.466;13.436;2022-09-27T16:25:34;12.20;1.00
5150;DHT22;2593;52.466;13.436;2022-09-27T16:28:00;12.30;1.00
5150;DHT22;2593;52.466;13.436;2022-09-27T16:30:27;12.30;1.00
5150;DHT22;2593;52.466;13.436;2022-09-27T16:32:53;12.20;99.90
5150;DHT22;2593;52.466;13.436;2022-09-27T16:35:21;12.20;99.90
5150;DHT22;2593;52.466;13.436;2022-09-27T16:37:47;12.20;99.90
5150;DHT22;2593;52.466;13.436;2022-09-27T16:40:13;12.10;99.90
5150;DHT22;2593;52.466;13.436;2022-09-27T16:42:42;12.10;99.90
5150;DHT22;2593;52.466;13.436;2022-09-27T16:45:08;12.00;47.30
5150;DHT22;2593;52.466;13.436;2022-09-27T16:47:34;11.90;43.20
5150;DHT22;2593;52.466;13.436;2022-09-27T16:50:01;12.00;99.90
5150;DHT22;2593;52.466;13.436;2022-09-27T16:52:45;12.00;99.90
5150;DHT22;2593;52.466;13.436;2022-09-27T16:55:15;11.90;99.90
5150;DHT22;2593;52.466;13.436;2022-09-27T16:57:46;11.90;99.90
5150;DHT22;2593;52.466;13.436;2022-09-27T17:00:12;11.90;99.90
5150;DHT22;2593;52.466;13.436;2022-09-27T17:02:37;11.80;99.90
5150;DHT22;2593;52.466;13.436;2022-09-27T17:05:03;11.70;99.90
5150;DHT22;2593;52.466;13.436;2022-09-27T17:07:29;11.70;99.90
5150;DHT22;2593;52.466;13.436;2022-09-27T17:09:54;11.60;99.90
5150;DHT22;2593;52.466;13.436;2022-09-27T17:12:20;11.60;99.90
5150;DHT22;2593;52.466;13.436;2022-09-27T17:14:47;11.60;1.00
5150;DHT22;2593;52.466;13.436;2022-09-27T17:17:12;11.50;1.00
5150;DHT22;2593;52.466;13.436;2022-09-27T17:19:38;11.50;1.00
5150;DHT22;2593;52.466;13.436;2022-09-27T17:22:05;11.40;1.00
5150;DHT22;2593;52.466;13.436;2022-09-27T17:24:31;11.40;1.00
5150;DHT22;2593;52.466;13.436;2022-09-27T17:26:57;11.40;1.00
5150;DHT22;2593;52.466;13.436;2022-09-27T17:29:22;11.40;1.00
5150;DHT22;2593;52.466;13.436;2022-09-27T17:31:48;11.30;1.00
5150;DHT22;2593;52.466;13.436;2022-09-27T17:34:14;11.30;1.00
5150;DHT22;2593;52.466;13.436;2022-09-27T17:36:41;11.30;1.00
5150;DHT22;2593;52.466;13.436;2022-09-27T17:39:11;11.30;1.00
5150;DHT22;2593;52.466;13.436;2022-09-27T17:41:37;11.30;1.00
5150;DHT22;2593;52.466;13.436;2022-09-27T17:44:03;11.30;1.00
5150;DHT22;2593;52.466;13.436;2022-09-27T17:46:34;11.20;1.00
5150;DHT22;2593;52.466;13.436;2022-09-27T17:49:00;11.20;1.00
5150;DHT22;2593;52.466;13.436;2022-09-27T17:51:47;11.20;1.00
5150;DHT22;2593;52.466;13.436;2022-09-27T17:54:13;11.30;1.00
5150;DHT22;2593;52.466;13.436;2022-09-27T17:56:41;11.20;1.00
5150;DHT22;2593;52.466;13.436;2022-09-27T17:59:08;11.20;1.00
5150;DHT22;2593;52.466;13.436;2022-09-27T18:01:34;11.20;1.00
5150;DHT22;2593;52.466;13.436;2022-09-27T18:04:03;11.10;1.00
5150;DHT22;2593;52.466;13.436;2022-09-27T18:06:28;11.20;1.00
5150;DHT22;2593;52.466;13.436;2022-09-27T18:08:54;11.10;7.60
5150;DHT22;2593;52.466;13.436;2022-09-27T18:11:24;11.10;14.30
5150;DHT22;2593;52.466;13.436;2022-09-27T18:13:57;11.10;27.60
5150;DHT22;2593;52.466;13.436;2022-09-27T18:16:31;11.10;55.10
5150;DHT22;2593;52.466;13.436;2022-09-27T18:19:00;11.10;69.20
5150;DHT22;2593;52.466;13.436;2022-09-27T18:21:27;11.10;52.50
5150;DHT22;2593;52.466;13.436;2022-09-27T18:23:54;11.10;27.40
5150;DHT22;2593;52.466;13.436;2022-09-27T18:26:21;11.10;3.60
5150;DHT22;2593;52.466;13.436;2022-09-27T18:28:49;11.20;1.00
5150;DHT22;2593;52.466;13.436;2022-09-27T18:31:17;11.10;1.00
5150;DHT22;2593;52.466;13.436;2022-09-27T18:33:43;11.10;1.00
5150;DHT22;2593;52.466;13.436;2022-09-27T18:36:12;11.10;1.00
5150;DHT22;2593;52.466;13.436;2022-09-27T18:38:38;11.20;1.00
5150;DHT22;2593;52.466;13.436;2022-09-27T18:43:31;11.10;1.00
5150;DHT22;2593;52.466;13.436;2022-09-27T18:45:59;11.10;1.00
5150;DHT22;2593;52.466;13.436;2022-09-27T18:48:25;11.00;32.50
5150;DHT22;2593;52.466;13.436;2022-09-27T18:50:50;11.00;50.20
5150;DHT22;2593;52.466;13.436;2022-09-27T18:53:16;11.00;86.00
5150;DHT22;2593;52.466;13.436;2022-09-27T18:55:42;11.00;99.90
5150;DHT22;2593;52.466;13.436;2022-09-27T18:58:07;10.90;99.90
5150;DHT22;2593;52.466;13.436;2022-09-27T19:00:35;10.90;99.90
5150;DHT22;2593;52.466;13.436;2022-09-27T19:03:00;10.80;99.90
5150;DHT22;2593;52.466;13.436;2022-09-27T19:05:26;10.80;99.90